sensor_id;sensor_type;location;lat;lon;timestamp;P1;durP1;ratioP1;P2;durP2;ratioP2
67562;SDS011;54392;53.556;49.214;2022-12-07T00:01:36;36.22;;;19.65;;
67562;SDS011;54392;53.556;49.214;2022-12-07T00:04:07;25.92;;;17.52;;
67562;SDS011;54392;53.556;49.214;2022-12-07T00:06:40;41.13;;;19.20;;
67562;SDS011;54392;53.556;49.214;2022-12-07T00:09:09;27.50;;;17.47;;
67562;SDS011;54392;53.556;49.214;2022-12-07T00:11:40;31.65;;;17.35;;
67562;SDS011;54392;53.556;49.214;2022-12-07T00:14:11;25.27;;;17.10;;
67562;SDS011;54392;53.556;49.214;2022-12-07T00:16:42;29.25;;;15.75;;
67562;SDS011;54392;53.556;49.214;2022-12-07T00:19:09;28.67;;;19.27;;
67562;SDS011;54392;53.556;49.214;2022-12-07T00:21:39;26.98;;;18.60;;
67562;SDS011;54392;53.556;49.214;2022-12-07T00:24:05;29.90;;;18.12;;
67562;SDS011;54392;53.556;49.214;2022-12-07T00:26:36;33.30;;;18.83;;
67562;SDS011;54392;53.556;49.214;2022-12-07T00:29:09;24.42;;;17.55;;
67562;SDS011;54392;53.556;49.214;2022-12-07T00:31:41;17.27;;;13.50;;
67562;SDS011;54392;53.556;49.214;2022-12-07T00:34:11;28.95;;;18.30;;
67562;SDS011;54392;53.556;49.214;2022-12-07T00:36:41;23.77;;;15.93;;
67562;SDS011;54392;53.556;49.214;2022-12-07T00:39:07;23.40;;;15.38;;
67562;SDS011;54392;53.556;49.214;2022-12-07T00:41:34;21.70;;;17.45;;
67562;SDS011;54392;53.556;49.214;2022-12-07T00:44:03;26.25;;;16.05;;
67562;SDS011;54392;53.556;49.214;2022-12-07T00:46:29;29.10;;;19.00;;
67562;SDS011;54392;53.556;49.214;2022-12-07T00:48:55;28.98;;;18.02;;
67562;SDS011;54392;53.556;49.214;2022-12-07T00:51:23;23.38;;;16.17;;
67562;SDS011;54392;53.556;49.214;2022-12-07T00:53:49;30.02;;;16.48;;
67562;SDS011;54392;53.556;49.214;2022-12-07T00:56:17;24.30;;;16.85;;
67562;SDS011;54392;53.556;49.214;2022-12-07T00:59:06;28.90;;;17.67;;
67562;SDS011;54392;53.556;49.214;2022-12-07T01:01:35;31.12;;;19.23;;
67562;SDS011;54392;53.556;49.214;2022-12-07T01:04:05;21.20;;;17.90;;
67562;SDS011;54392;53.556;49.214;2022-12-07T01:06:36;22.35;;;16.23;;
67562;SDS011;54392;53.556;49.214;2022-12-07T01:09:08;37.28;;;18.75;;
67562;SDS011;54392;53.556;49.214;2022-12-07T01:11:36;24.77;;;16.67;;
67562;SDS011;54392;53.556;49.214;2022-12-07T01:14:12;27.52;;;15.50;;
67562;SDS011;54392;53.556;49.214;2022-12-07T01:16:38;23.98;;;15.80;;
67562;SDS011;54392;53.556;49.214;2022-12-07T01:19:06;18.62;;;15.65;;
67562;SDS011;54392;53.556;49.214;2022-12-07T01:21:34;31.50;;;18.52;;
67562;SDS011;54392;53.556;49.214;2022-12-07T01:24:01;33.22;;;16.50;;
67562;SDS011;54392;53.556;49.214;2022-12-07T01:26:31;35.10;;;17.27;;
67562;SDS011;54392;53.556;49.214;2022-12-07T01:28:59;25.12;;;16.35;;
67562;SDS011;54392;53.556;49.214;2022-12-07T01:31:26;35.42;;;19.37;;
67562;SDS011;54392;53.556;49.214;2022-12-07T01:33:54;25.85;;;18.85;;
67562;SDS011;54392;53.556;49.214;2022-12-07T01:36:25;31.08;;;19.60;;
67562;SDS011;54392;53.556;49.214;2022-12-07T01:38:59;23.48;;;17.77;;
67562;SDS011;54392;53.556;49.214;2022-12-07T01:41:28;30.37;;;17.83;;
67562;SDS011;54392;53.556;49.214;2022-12-07T01:46:36;38.78;;;19.42;;
67562;SDS011;54392;53.556;49.214;2022-12-07T01:49:06;22.27;;;16.85;;
67562;SDS011;54392;53.556;49.214;2022-12-07T01:51:35;29.60;;;17.90;;
67562;SDS011;54392;53.556;49.214;2022-12-07T01:54:03;30.02;;;16.55;;
67562;SDS011;54392;53.556;49.214;2022-12-07T01:56:29;26.80;;;16.40;;
67562;SDS011;54392;53.556;49.214;2022-12-07T01:58:56;34.75;;;20.62;;
67562;SDS011;54392;53.556;49.214;2022-12-07T02:01:24;24.48;;;17.75;;
67562;SDS011;54392;53.556;49.214;2022-12-07T02:03:50;41.05;;;16.80;;
67562;SDS011;54392;53.556;49.214;2022-12-07T02:06:21;22.42;;;15.70;;
67562;SDS011;54392;53.556;49.214;2022-12-07T02:08:49;32.22;;;17.75;;
67562;SDS011;54392;53.556;49.214;2022-12-07T02:11:21;27.87;;;15.45;;
67562;SDS011;54392;53.556;49.214;2022-12-07T02:13:50;29.50;;;17.33;;
67562;SDS011;54392;53.556;49.214;2022-12-07T02:16:32;23.62;;;17.67;;
67562;SDS011;54392;53.556;49.214;2022-12-07T02:19:13;24.40;;;16.60;;
67562;SDS011;54392;53.556;49.214;2022-12-07T02:24:58;28.75;;;18.37;;
67562;SDS011;54392;53.556;49.214;2022-12-07T02:30:55;22.98;;;17.80;;
67562;SDS011;54392;53.556;49.214;2022-12-07T02:33:28;25.02;;;16.35;;
67562;SDS011;54392;53.556;49.214;2022-12-07T02:41:30;31.42;;;17.85;;
67562;SDS011;54392;53.556;49.214;2022-12-07T02:44:07;30.00;;;16.02;;
67562;SDS011;54392;53.556;49.214;2022-12-07T02:46:39;23.42;;;17.35;;
67562;SDS011;54392;53.556;49.214;2022-12-07T02:49:12;27.35;;;17.90;;
67562;SDS011;54392;53.556;49.214;2022-12-07T02:51:39;26.25;;;16.17;;
67562;SDS011;54392;53.556;49.214;2022-12-07T02:54:11;24.80;;;16.20;;
67562;SDS011;54392;53.556;49.214;2022-12-07T02:59:39;26.00;;;16.80;;
67562;SDS011;54392;53.556;49.214;2022-12-07T03:02:33;31.83;;;18.33;;
67562;SDS011;54392;53.556;49.214;2022-12-07T03:05:13;23.77;;;16.15;;
67562;SDS011;54392;53.556;49.214;2022-12-07T03:13:01;33.55;;;20.02;;
67562;SDS011;54392;53.556;49.214;2022-12-07T03:15:36;29.37;;;15.45;;
67562;SDS011;54392;53.556;49.214;2022-12-07T03:18:07;35.88;;;19.30;;
67562;SDS011;54392;53.556;49.214;2022-12-07T03:20:38;30.85;;;17.02;;
67562;SDS011;54392;53.556;49.214;2022-12-07T03:23:05;19.50;;;15.25;;
67562;SDS011;54392;53.556;49.214;2022-12-07T03:28:07;32.33;;;17.27;;
67562;SDS011;54392;53.556;49.214;2022-12-07T03:33:27;26.62;;;18.12;;
67562;SDS011;54392;53.556;49.214;2022-12-07T03:38:49;33.45;;;18.80;;
67562;SDS011;54392;53.556;49.214;2022-12-07T03:41:22;26.08;;;18.60;;
67562;SDS011;54392;53.556;49.214;2022-12-07T03:43:51;26.25;;;18.40;;
67562;SDS011;54392;53.556;49.214;2022-12-07T03:51:45;34.00;;;19.02;;
67562;SDS011;54392;53.556;49.214;2022-12-07T03:59:36;26.35;;;18.77;;
67562;SDS011;54392;53.556;49.214;2022-12-07T04:02:04;27.95;;;19.23;;
67562;SDS011;54392;53.556;49.214;2022-12-07T04:04:31;30.75;;;18.92;;
67562;SDS011;54392;53.556;49.214;2022-12-07T04:06:58;25.40;;;19.25;;
67562;SDS011;54392;53.556;49.214;2022-12-07T04:09:24;23.20;;;18.08;;
67562;SDS011;54392;53.556;49.214;2022-12-07T04:11:54;34.72;;;23.15;;
67562;SDS011;54392;53.556;49.214;2022-12-07T04:14:22;30.45;;;19.35;;
67562;SDS011;54392;53.556;49.214;2022-12-07T04:16:50;28.70;;;17.37;;
67562;SDS011;54392;53.556;49.214;2022-12-07T04:19:26;24.95;;;17.25;;
67562;SDS011;54392;53.556;49.214;2022-12-07T04:21:56;29.77;;;17.00;;
67562;SDS011;54392;53.556;49.214;2022-12-07T04:24:23;19.87;;;16.15;;
67562;SDS011;54392;53.556;49.214;2022-12-07T04:26:51;31.55;;;20.17;;
67562;SDS011;54392;53.556;49.214;2022-12-07T04:29:21;27.58;;;17.73;;
67562;SDS011;54392;53.556;49.214;2022-12-07T04:31:48;23.45;;;16.50;;
67562;SDS011;54392;53.556;49.214;2022-12-07T04:34:18;26.58;;;17.95;;
67562;SDS011;54392;53.556;49.214;2022-12-07T04:41:46;31.67;;;18.50;;
67562;SDS011;54392;53.556;49.214;2022-12-07T04:44:12;24.30;;;19.15;;
67562;SDS011;54392;53.556;49.214;2022-12-07T04:46:41;27.33;;;17.67;;
67562;SDS011;54392;53.556;49.214;2022-12-07T04:49:08;27.77;;;16.45;;
67562;SDS011;54392;53.556;49.214;2022-12-07T04:51:35;27.02;;;17.65;;
67562;SDS011;54392;53.556;49.214;2022-12-07T04:54:04;27.65;;;18.58;;
67562;SDS011;54392;53.556;49.214;2022-12-07T04:56:36;29.55;;;18.80;;
67562;SDS011;54392;53.556;49.214;2022-12-07T04:59:05;35.67;;;21.62;;
67562;SDS011;54392;53.556;49.214;2022-12-07T05:01:42;49.53;;;22.35;;
67562;SDS011;54392;53.556;49.214;2022-12-07T05:04:09;31.17;;;18.95;;
67562;SDS011;54392;53.556;49.214;2022-12-07T05:06:38;39.25;;;20.08;;
67562;SDS011;54392;53.556;49.214;2022-12-07T05:09:04;29.52;;;16.20;;
67562;SDS011;54392;53.556;49.214;2022-12-07T05:11:31;32.90;;;19.20;;
67562;SDS011;54392;53.556;49.214;2022-12-07T05:14:12;31.00;;;19.20;;
67562;SDS011;54392;53.556;49.214;2022-12-07T05:16:41;30.00;;;18.90;;
67562;SDS011;54392;53.556;49.214;2022-12-07T05:19:08;27.73;;;20.15;;
67562;SDS011;54392;53.556;49.214;2022-12-07T05:21:35;29.83;;;20.20;;
67562;SDS011;54392;53.556;49.214;2022-12-07T05:24:01;32.67;;;19.87;;
67562;SDS011;54392;53.556;49.214;2022-12-07T05:26:27;34.97;;;17.17;;
67562;SDS011;54392;53.556;49.214;2022-12-07T05:28:54;36.47;;;19.25;;
67562;SDS011;54392;53.556;49.214;2022-12-07T05:31:25;22.23;;;16.52;;
67562;SDS011;54392;53.556;49.214;2022-12-07T05:33:52;27.52;;;16.67;;
67562;SDS011;54392;53.556;49.214;2022-12-07T05:36:19;39.10;;;20.15;;
67562;SDS011;54392;53.556;49.214;2022-12-07T05:38:45;32.03;;;20.55;;
67562;SDS011;54392;53.556;49.214;2022-12-07T05:41:15;26.00;;;19.05;;
67562;SDS011;54392;53.556;49.214;2022-12-07T05:44:09;33.75;;;18.42;;
67562;SDS011;54392;53.556;49.214;2022-12-07T05:46:35;34.15;;;20.17;;
67562;SDS011;54392;53.556;49.214;2022-12-07T05:49:07;37.30;;;19.62;;
67562;SDS011;54392;53.556;49.214;2022-12-07T05:51:33;18.08;;;14.48;;
67562;SDS011;54392;53.556;49.214;2022-12-07T05:53:59;37.20;;;21.12;;
67562;SDS011;54392;53.556;49.214;2022-12-07T05:56:26;29.50;;;16.73;;
67562;SDS011;54392;53.556;49.214;2022-12-07T05:58:52;37.53;;;17.58;;
67562;SDS011;54392;53.556;49.214;2022-12-07T06:01:40;31.52;;;17.15;;
67562;SDS011;54392;53.556;49.214;2022-12-07T06:04:06;45.03;;;19.60;;
67562;SDS011;54392;53.556;49.214;2022-12-07T06:06:32;24.48;;;16.73;;
67562;SDS011;54392;53.556;49.214;2022-12-07T06:08:58;24.58;;;16.75;;
67562;SDS011;54392;53.556;49.214;2022-12-07T06:11:27;19.83;;;16.55;;
67562;SDS011;54392;53.556;49.214;2022-12-07T06:14:15;24.27;;;16.40;;
67562;SDS011;54392;53.556;49.214;2022-12-07T06:16:41;28.90;;;19.27;;
67562;SDS011;54392;53.556;49.214;2022-12-07T06:19:14;24.50;;;19.67;;
67562;SDS011;54392;53.556;49.214;2022-12-07T06:21:41;29.98;;;18.42;;
67562;SDS011;54392;53.556;49.214;2022-12-07T06:24:09;32.58;;;18.25;;
67562;SDS011;54392;53.556;49.214;2022-12-07T06:26:37;28.25;;;19.23;;
67562;SDS011;54392;53.556;49.214;2022-12-07T06:29:06;26.33;;;17.55;;
67562;SDS011;54392;53.556;49.214;2022-12-07T06:31:33;26.15;;;16.33;;
67562;SDS011;54392;53.556;49.214;2022-12-07T06:34:00;31.90;;;17.12;;
67562;SDS011;54392;53.556;49.214;2022-12-07T06:36:27;34.63;;;18.23;;
67562;SDS011;54392;53.556;49.214;2022-12-07T06:38:53;28.50;;;15.68;;
67562;SDS011;54392;53.556;49.214;2022-12-07T06:41:20;28.00;;;17.58;;
67562;SDS011;54392;53.556;49.214;2022-12-07T06:43:46;24.70;;;17.00;;
67562;SDS011;54392;53.556;49.214;2022-12-07T06:46:15;19.02;;;15.02;;
67562;SDS011;54392;53.556;49.214;2022-12-07T06:48:42;26.15;;;17.30;;
67562;SDS011;54392;53.556;49.214;2022-12-07T06:51:08;26.17;;;16.02;;
67562;SDS011;54392;53.556;49.214;2022-12-07T06:53:35;23.62;;;17.55;;
67562;SDS011;54392;53.556;49.214;2022-12-07T06:56:01;28.42;;;16.52;;
67562;SDS011;54392;53.556;49.214;2022-12-07T06:58:29;24.67;;;14.32;;
67562;SDS011;54392;53.556;49.214;2022-12-07T07:00:58;17.85;;;13.82;;
67562;SDS011;54392;53.556;49.214;2022-12-07T07:03:24;23.00;;;16.75;;
67562;SDS011;54392;53.556;49.214;2022-12-07T07:05:50;26.52;;;17.33;;
67562;SDS011;54392;53.556;49.214;2022-12-07T07:08:17;25.00;;;16.50;;
67562;SDS011;54392;53.556;49.214;2022-12-07T07:10:43;33.55;;;15.90;;
67562;SDS011;54392;53.556;49.214;2022-12-07T07:13:09;19.35;;;15.55;;
67562;SDS011;54392;53.556;49.214;2022-12-07T07:15:37;24.95;;;14.55;;
67562;SDS011;54392;53.556;49.214;2022-12-07T07:18:03;20.08;;;13.95;;
67562;SDS011;54392;53.556;49.214;2022-12-07T07:20:29;20.40;;;15.15;;
67562;SDS011;54392;53.556;49.214;2022-12-07T07:22:56;33.92;;;15.50;;
67562;SDS011;54392;53.556;49.214;2022-12-07T07:25:22;18.65;;;13.77;;
67562;SDS011;54392;53.556;49.214;2022-12-07T07:27:48;20.98;;;14.13;;
67562;SDS011;54392;53.556;49.214;2022-12-07T07:30:15;21.52;;;14.63;;
67562;SDS011;54392;53.556;49.214;2022-12-07T07:32:41;26.85;;;13.90;;
67562;SDS011;54392;53.556;49.214;2022-12-07T07:35:10;16.17;;;12.95;;
67562;SDS011;54392;53.556;49.214;2022-12-07T07:37:37;18.12;;;13.13;;
67562;SDS011;54392;53.556;49.214;2022-12-07T07:40:03;19.70;;;12.98;;
67562;SDS011;54392;53.556;49.214;2022-12-07T07:42:33;27.05;;;14.05;;
67562;SDS011;54392;53.556;49.214;2022-12-07T07:45:00;23.90;;;17.25;;
67562;SDS011;54392;53.556;49.214;2022-12-07T07:47:26;21.85;;;12.65;;
67562;SDS011;54392;53.556;49.214;2022-12-07T07:49:55;18.30;;;12.10;;
67562;SDS011;54392;53.556;49.214;2022-12-07T07:52:24;20.27;;;12.70;;
67562;SDS011;54392;53.556;49.214;2022-12-07T07:54:51;14.18;;;12.25;;
67562;SDS011;54392;53.556;49.214;2022-12-07T07:57:19;14.73;;;10.75;;
67562;SDS011;54392;53.556;49.214;2022-12-07T08:20:49;25.40;;;14.75;;
67562;SDS011;54392;53.556;49.214;2022-12-07T08:23:17;20.23;;;13.55;;
67562;SDS011;54392;53.556;49.214;2022-12-07T08:25:44;19.80;;;10.68;;
67562;SDS011;54392;53.556;49.214;2022-12-07T08:28:12;15.10;;;10.45;;
67562;SDS011;54392;53.556;49.214;2022-12-07T08:30:39;15.80;;;12.32;;
67562;SDS011;54392;53.556;49.214;2022-12-07T08:33:05;19.15;;;11.95;;
67562;SDS011;54392;53.556;49.214;2022-12-07T08:35:32;25.10;;;11.50;;
67562;SDS011;54392;53.556;49.214;2022-12-07T08:38:04;18.15;;;11.75;;
67562;SDS011;54392;53.556;49.214;2022-12-07T08:40:33;17.90;;;11.38;;
67562;SDS011;54392;53.556;49.214;2022-12-07T08:43:00;17.10;;;10.27;;
67562;SDS011;54392;53.556;49.214;2022-12-07T08:45:27;17.37;;;11.50;;
67562;SDS011;54392;53.556;49.214;2022-12-07T08:48:04;19.75;;;11.80;;
67562;SDS011;54392;53.556;49.214;2022-12-07T08:53:05;16.10;;;10.60;;
67562;SDS011;54392;53.556;49.214;2022-12-07T08:55:32;18.48;;;12.35;;
67562;SDS011;54392;53.556;49.214;2022-12-07T08:58:02;20.77;;;11.98;;
67562;SDS011;54392;53.556;49.214;2022-12-07T09:00:31;17.80;;;11.98;;
67562;SDS011;54392;53.556;49.214;2022-12-07T09:03:00;16.40;;;12.27;;
67562;SDS011;54392;53.556;49.214;2022-12-07T09:05:26;22.45;;;12.63;;
67562;SDS011;54392;53.556;49.214;2022-12-07T09:07:54;19.15;;;13.40;;
67562;SDS011;54392;53.556;49.214;2022-12-07T09:10:29;25.23;;;13.60;;
67562;SDS011;54392;53.556;49.214;2022-12-07T09:12:55;22.60;;;11.43;;
67562;SDS011;54392;53.556;49.214;2022-12-07T09:15:24;12.52;;;8.10;;
67562;SDS011;54392;53.556;49.214;2022-12-07T09:17:51;17.60;;;11.88;;
67562;SDS011;54392;53.556;49.214;2022-12-07T09:20:17;19.60;;;12.00;;
67562;SDS011;54392;53.556;49.214;2022-12-07T09:22:57;23.55;;;10.63;;
67562;SDS011;54392;53.556;49.214;2022-12-07T09:25:23;10.85;;;9.75;;
67562;SDS011;54392;53.556;49.214;2022-12-07T09:27:55;14.38;;;10.50;;
67562;SDS011;54392;53.556;49.214;2022-12-07T09:30:22;13.45;;;9.63;;
67562;SDS011;54392;53.556;49.214;2022-12-07T09:32:48;15.18;;;12.63;;
67562;SDS011;54392;53.556;49.214;2022-12-07T09:35:18;17.52;;;10.02;;
67562;SDS011;54392;53.556;49.214;2022-12-07T09:37:44;17.80;;;11.00;;
67562;SDS011;54392;53.556;49.214;2022-12-07T09:40:13;33.63;;;9.73;;
67562;SDS011;54392;53.556;49.214;2022-12-07T09:42:51;17.00;;;9.32;;
67562;SDS011;54392;53.556;49.214;2022-12-07T09:45:30;17.40;;;7.97;;
67562;SDS011;54392;53.556;49.214;2022-12-07T09:47:59;24.30;;;10.90;;
67562;SDS011;54392;53.556;49.214;2022-12-07T09:50:29;17.85;;;9.43;;
67562;SDS011;54392;53.556;49.214;2022-12-07T09:53:03;12.73;;;8.80;;
67562;SDS011;54392;53.556;49.214;2022-12-07T09:55:34;36.50;;;9.30;;
67562;SDS011;54392;53.556;49.214;2022-12-07T09:58:02;25.60;;;11.55;;
67562;SDS011;54392;53.556;49.214;2022-12-07T10:00:31;14.60;;;8.45;;
67562;SDS011;54392;53.556;49.214;2022-12-07T10:02:58;17.23;;;8.93;;
67562;SDS011;54392;53.556;49.214;2022-12-07T10:05:29;14.30;;;9.75;;
67562;SDS011;54392;53.556;49.214;2022-12-07T10:08:16;24.33;;;11.15;;
67562;SDS011;54392;53.556;49.214;2022-12-07T10:10:43;39.00;;;9.65;;
67562;SDS011;54392;53.556;49.214;2022-12-07T10:13:52;14.10;;;9.30;;
67562;SDS011;54392;53.556;49.214;2022-12-07T10:16:07;10.38;;;8.65;;
67562;SDS011;54392;53.556;49.214;2022-12-07T10:19:18;14.75;;;8.63;;
67562;SDS011;54392;53.556;49.214;2022-12-07T10:24:43;22.00;;;7.85;;
67562;SDS011;54392;53.556;49.214;2022-12-07T10:29:47;14.00;;;7.32;;
67562;SDS011;54392;53.556;49.214;2022-12-07T10:34:44;17.90;;;8.30;;
67562;SDS011;54392;53.556;49.214;2022-12-07T10:37:14;10.98;;;6.12;;
67562;SDS011;54392;53.556;49.214;2022-12-07T10:39:52;13.38;;;8.40;;
67562;SDS011;54392;53.556;49.214;2022-12-07T10:42:26;9.63;;;6.37;;
67562;SDS011;54392;53.556;49.214;2022-12-07T10:45:12;16.08;;;6.87;;
67562;SDS011;54392;53.556;49.214;2022-12-07T10:53:19;13.68;;;7.82;;
67562;SDS011;54392;53.556;49.214;2022-12-07T10:59:00;12.85;;;5.78;;
67562;SDS011;54392;53.556;49.214;2022-12-07T11:04:54;6.90;;;5.70;;
67562;SDS011;54392;53.556;49.214;2022-12-07T11:10:17;12.48;;;8.20;;
67562;SDS011;54392;53.556;49.214;2022-12-07T11:12:54;8.85;;;6.65;;
67562;SDS011;54392;53.556;49.214;2022-12-07T11:15:36;10.27;;;6.57;;
67562;SDS011;54392;53.556;49.214;2022-12-07T11:24:19;10.10;;;6.78;;
67562;SDS011;54392;53.556;49.214;2022-12-07T11:37:58;12.93;;;7.60;;
67562;SDS011;54392;53.556;49.214;2022-12-07T11:40:31;17.10;;;7.03;;
67562;SDS011;54392;53.556;49.214;2022-12-07T11:43:14;12.52;;;7.80;;
67562;SDS011;54392;53.556;49.214;2022-12-07T11:46:36;18.58;;;8.60;;
67562;SDS011;54392;53.556;49.214;2022-12-07T11:48:47;18.12;;;8.20;;
67562;SDS011;54392;53.556;49.214;2022-12-07T11:51:18;17.37;;;10.55;;
67562;SDS011;54392;53.556;49.214;2022-12-07T11:53:52;18.65;;;9.43;;
67562;SDS011;54392;53.556;49.214;2022-12-07T11:56:28;12.55;;;8.32;;
67562;SDS011;54392;53.556;49.214;2022-12-07T12:01:57;10.02;;;8.07;;
67562;SDS011;54392;53.556;49.214;2022-12-07T12:04:39;12.73;;;5.97;;
67562;SDS011;54392;53.556;49.214;2022-12-07T12:07:31;14.30;;;9.02;;
67562;SDS011;54392;53.556;49.214;2022-12-07T12:10:14;17.15;;;9.65;;
67562;SDS011;54392;53.556;49.214;2022-12-07T12:12:52;14.45;;;7.35;;
67562;SDS011;54392;53.556;49.214;2022-12-07T12:18:40;16.15;;;9.68;;
67562;SDS011;54392;53.556;49.214;2022-12-07T12:21:12;15.20;;;8.80;;
67562;SDS011;54392;53.556;49.214;2022-12-07T12:23:43;8.35;;;7.37;;
67562;SDS011;54392;53.556;49.214;2022-12-07T12:26:18;18.87;;;8.05;;
67562;SDS011;54392;53.556;49.214;2022-12-07T12:34:30;30.88;;;10.52;;
67562;SDS011;54392;53.556;49.214;2022-12-07T12:37:02;13.05;;;10.68;;
67562;SDS011;54392;53.556;49.214;2022-12-07T12:39:28;24.15;;;10.60;;
67562;SDS011;54392;53.556;49.214;2022-12-07T12:41:55;15.90;;;10.63;;
67562;SDS011;54392;53.556;49.214;2022-12-07T12:55:58;13.65;;;9.88;;
67562;SDS011;54392;53.556;49.214;2022-12-07T12:58:36;15.82;;;7.80;;
67562;SDS011;54392;53.556;49.214;2022-12-07T13:03:58;19.70;;;9.27;;
67562;SDS011;54392;53.556;49.214;2022-12-07T13:08:52;14.35;;;9.07;;
67562;SDS011;54392;53.556;49.214;2022-12-07T13:11:31;14.90;;;8.15;;
67562;SDS011;54392;53.556;49.214;2022-12-07T13:17:02;13.62;;;8.05;;
67562;SDS011;54392;53.556;49.214;2022-12-07T13:24:56;9.60;;;7.07;;
67562;SDS011;54392;53.556;49.214;2022-12-07T13:27:28;11.90;;;7.90;;
67562;SDS011;54392;53.556;49.214;2022-12-07T13:29:56;21.40;;;8.30;;
67562;SDS011;54392;53.556;49.214;2022-12-07T13:32:23;36.38;;;10.00;;
67562;SDS011;54392;53.556;49.214;2022-12-07T13:34:51;16.05;;;6.28;;
67562;SDS011;54392;53.556;49.214;2022-12-07T13:37:29;15.45;;;9.20;;
67562;SDS011;54392;53.556;49.214;2022-12-07T13:40:01;12.40;;;7.05;;
67562;SDS011;54392;53.556;49.214;2022-12-07T13:42:45;23.25;;;7.93;;
67562;SDS011;54392;53.556;49.214;2022-12-07T13:45:20;16.25;;;7.28;;
67562;SDS011;54392;53.556;49.214;2022-12-07T13:48:11;37.40;;;7.30;;
67562;SDS011;54392;53.556;49.214;2022-12-07T13:51:02;15.30;;;9.55;;
67562;SDS011;54392;53.556;49.214;2022-12-07T13:53:32;14.02;;;6.37;;
67562;SDS011;54392;53.556;49.214;2022-12-07T13:55:59;10.75;;;6.82;;
67562;SDS011;54392;53.556;49.214;2022-12-07T13:58:26;12.80;;;6.87;;
67562;SDS011;54392;53.556;49.214;2022-12-07T14:00:55;16.45;;;8.40;;
67562;SDS011;54392;53.556;49.214;2022-12-07T14:03:26;10.32;;;6.80;;
67562;SDS011;54392;53.556;49.214;2022-12-07T14:08:47;22.40;;;7.47;;
67562;SDS011;54392;53.556;49.214;2022-12-07T14:11:19;9.55;;;7.03;;
67562;SDS011;54392;53.556;49.214;2022-12-07T14:16:25;12.98;;;7.78;;
67562;SDS011;54392;53.556;49.214;2022-12-07T14:19:00;15.48;;;7.07;;
67562;SDS011;54392;53.556;49.214;2022-12-07T14:21:30;25.27;;;7.97;;
67562;SDS011;54392;53.556;49.214;2022-12-07T14:24:08;17.75;;;6.87;;
67562;SDS011;54392;53.556;49.214;2022-12-07T14:26:34;12.25;;;6.35;;
67562;SDS011;54392;53.556;49.214;2022-12-07T14:29:20;11.05;;;7.00;;
67562;SDS011;54392;53.556;49.214;2022-12-07T14:31:57;9.98;;;5.95;;
67562;SDS011;54392;53.556;49.214;2022-12-07T14:34:26;16.67;;;7.87;;
67562;SDS011;54392;53.556;49.214;2022-12-07T14:36:52;10.02;;;6.32;;
67562;SDS011;54392;53.556;49.214;2022-12-07T14:39:19;8.65;;;6.62;;
67562;SDS011;54392;53.556;49.214;2022-12-07T14:41:45;16.75;;;6.82;;
67562;SDS011;54392;53.556;49.214;2022-12-07T14:44:19;19.00;;;7.68;;
67562;SDS011;54392;53.556;49.214;2022-12-07T14:47:03;26.48;;;7.68;;
67562;SDS011;54392;53.556;49.214;2022-12-07T14:49:33;16.48;;;7.05;;
67562;SDS011;54392;53.556;49.214;2022-12-07T14:52:01;6.62;;;5.30;;
67562;SDS011;54392;53.556;49.214;2022-12-07T14:54:29;6.15;;;5.53;;
67562;SDS011;54392;53.556;49.214;2022-12-07T14:56:57;20.70;;;7.30;;
67562;SDS011;54392;53.556;49.214;2022-12-07T14:59:23;11.60;;;7.20;;
67562;SDS011;54392;53.556;49.214;2022-12-07T15:01:50;8.38;;;4.60;;
67562;SDS011;54392;53.556;49.214;2022-12-07T15:04:16;7.43;;;5.55;;
67562;SDS011;54392;53.556;49.214;2022-12-07T15:06:53;16.60;;;5.47;;
67562;SDS011;54392;53.556;49.214;2022-12-07T15:09:23;13.57;;;6.70;;
67562;SDS011;54392;53.556;49.214;2022-12-07T15:11:59;20.23;;;5.93;;
67562;SDS011;54392;53.556;49.214;2022-12-07T15:14:29;11.60;;;6.05;;
67562;SDS011;54392;53.556;49.214;2022-12-07T15:16:55;11.07;;;6.15;;
67562;SDS011;54392;53.556;49.214;2022-12-07T15:19:24;10.55;;;5.05;;
67562;SDS011;54392;53.556;49.214;2022-12-07T15:21:54;16.70;;;6.50;;
67562;SDS011;54392;53.556;49.214;2022-12-07T15:24:20;12.77;;;5.72;;
67562;SDS011;54392;53.556;49.214;2022-12-07T15:26:47;15.25;;;6.72;;
67562;SDS011;54392;53.556;49.214;2022-12-07T15:29:13;7.65;;;4.12;;
67562;SDS011;54392;53.556;49.214;2022-12-07T15:31:41;10.35;;;5.90;;
67562;SDS011;54392;53.556;49.214;2022-12-07T15:34:11;9.45;;;6.53;;
67562;SDS011;54392;53.556;49.214;2022-12-07T15:36:37;19.33;;;5.35;;
67562;SDS011;54392;53.556;49.214;2022-12-07T15:39:06;11.18;;;5.37;;
67562;SDS011;54392;53.556;49.214;2022-12-07T15:41:35;11.15;;;8.77;;
67562;SDS011;54392;53.556;49.214;2022-12-07T15:44:01;8.93;;;7.57;;
67562;SDS011;54392;53.556;49.214;2022-12-07T15:46:45;14.85;;;9.07;;
67562;SDS011;54392;53.556;49.214;2022-12-07T15:49:18;23.73;;;11.38;;
67562;SDS011;54392;53.556;49.214;2022-12-07T15:51:45;30.83;;;11.75;;
67562;SDS011;54392;53.556;49.214;2022-12-07T15:54:19;23.55;;;11.77;;
67562;SDS011;54392;53.556;49.214;2022-12-07T15:56:47;22.15;;;9.05;;
67562;SDS011;54392;53.556;49.214;2022-12-07T15:59:13;19.95;;;12.00;;
67562;SDS011;54392;53.556;49.214;2022-12-07T16:01:43;22.30;;;9.68;;
67562;SDS011;54392;53.556;49.214;2022-12-07T16:04:09;12.18;;;9.43;;
67562;SDS011;54392;53.556;49.214;2022-12-07T16:06:35;18.73;;;8.00;;
67562;SDS011;54392;53.556;49.214;2022-12-07T16:09:04;13.43;;;9.75;;
67562;SDS011;54392;53.556;49.214;2022-12-07T16:11:33;29.50;;;10.85;;
67562;SDS011;54392;53.556;49.214;2022-12-07T16:14:02;20.25;;;11.15;;
67562;SDS011;54392;53.556;49.214;2022-12-07T16:16:28;16.87;;;10.38;;
67562;SDS011;54392;53.556;49.214;2022-12-07T16:18:57;23.08;;;12.73;;
67562;SDS011;54392;53.556;49.214;2022-12-07T16:21:23;20.75;;;12.50;;
67562;SDS011;54392;53.556;49.214;2022-12-07T16:23:52;29.23;;;11.45;;
67562;SDS011;54392;53.556;49.214;2022-12-07T16:26:20;17.80;;;11.27;;
67562;SDS011;54392;53.556;49.214;2022-12-07T16:28:50;30.27;;;11.15;;
67562;SDS011;54392;53.556;49.214;2022-12-07T16:31:18;20.40;;;8.68;;
67562;SDS011;54392;53.556;49.214;2022-12-07T16:33:45;11.63;;;7.87;;
67562;SDS011;54392;53.556;49.214;2022-12-07T16:36:13;17.80;;;8.32;;
67562;SDS011;54392;53.556;49.214;2022-12-07T16:38:41;11.00;;;8.50;;
67562;SDS011;54392;53.556;49.214;2022-12-07T16:41:11;16.95;;;9.02;;
67562;SDS011;54392;53.556;49.214;2022-12-07T16:43:37;13.05;;;8.10;;
67562;SDS011;54392;53.556;49.214;2022-12-07T16:46:06;16.55;;;7.57;;
67562;SDS011;54392;53.556;49.214;2022-12-07T16:48:34;11.32;;;7.87;;
67562;SDS011;54392;53.556;49.214;2022-12-07T16:51:07;14.05;;;8.52;;
67562;SDS011;54392;53.556;49.214;2022-12-07T16:53:35;12.63;;;8.82;;
67562;SDS011;54392;53.556;49.214;2022-12-07T16:56:09;16.85;;;8.07;;
67562;SDS011;54392;53.556;49.214;2022-12-07T16:58:40;8.30;;;7.57;;
67562;SDS011;54392;53.556;49.214;2022-12-07T17:01:10;18.15;;;7.85;;
67562;SDS011;54392;53.556;49.214;2022-12-07T17:03:40;17.50;;;11.00;;
67562;SDS011;54392;53.556;49.214;2022-12-07T17:06:13;20.50;;;10.13;;